sensor_id;sensor_type;location;lat;lon;timestamp;P1;durP1;ratioP1;P2;durP2;ratioP2
20945;SDS011;10632;51.276;7.116;2022-07-23T00:00:13;18.13;;;6.97;;
20945;SDS011;10632;51.276;7.116;2022-07-23T00:02:41;20.45;;;7.72;;
20945;SDS011;10632;51.276;7.116;2022-07-23T00:05:10;19.38;;;7.40;;
20945;SDS011;10632;51.276;7.116;2022-07-23T00:07:37;22.45;;;7.30;;
20945;SDS011;10632;51.276;7.116;2022-07-23T00:10:04;22.65;;;8.23;;
20945;SDS011;10632;51.276;7.116;2022-07-23T00:12:32;17.52;;;7.03;;
20945;SDS011;10632;51.276;7.116;2022-07-23T00:14:59;22.73;;;8.05;;
20945;SDS011;10632;51.276;7.116;2022-07-23T00:17:26;19.98;;;8.10;;
20945;SDS011;10632;51.276;7.116;2022-07-23T00:19:53;21.33;;;7.63;;
20945;SDS011;10632;51.276;7.116;2022-07-23T00:22:21;19.27;;;7.18;;
20945;SDS011;10632;51.276;7.116;2022-07-23T00:24:48;22.25;;;7.55;;
20945;SDS011;10632;51.276;7.116;2022-07-23T00:27:15;18.20;;;5.88;;
20945;SDS011;10632;51.276;7.116;2022-07-23T00:29:42;14.02;;;6.07;;
20945;SDS011;10632;51.276;7.116;2022-07-23T00:32:09;18.77;;;6.75;;
20945;SDS011;10632;51.276;7.116;2022-07-23T00:34:36;21.42;;;6.75;;
20945;SDS011;10632;51.276;7.116;2022-07-23T00:37:03;22.27;;;6.63;;
20945;SDS011;10632;51.276;7.116;2022-07-23T00:39:32;22.23;;;6.63;;
20945;SDS011;10632;51.276;7.116;2022-07-23T00:41:59;17.40;;;6.47;;
20945;SDS011;10632;51.276;7.116;2022-07-23T00:44:26;19.73;;;6.18;;
20945;SDS011;10632;51.276;7.116;2022-07-23T00:46:55;18.17;;;6.10;;
20945;SDS011;10632;51.276;7.116;2022-07-23T00:49:23;15.45;;;5.97;;
20945;SDS011;10632;51.276;7.116;2022-07-23T00:51:57;17.10;;;6.07;;
20945;SDS011;10632;51.276;7.116;2022-07-23T00:54:28;16.70;;;6.28;;
20945;SDS011;10632;51.276;7.116;2022-07-23T00:56:57;19.48;;;6.35;;
20945;SDS011;10632;51.276;7.116;2022-07-23T00:59:24;16.08;;;5.68;;
20945;SDS011;10632;51.276;7.116;2022-07-23T01:01:51;15.98;;;5.45;;
20945;SDS011;10632;51.276;7.116;2022-07-23T01:04:18;16.05;;;5.32;;
20945;SDS011;10632;51.276;7.116;2022-07-23T01:06:46;17.77;;;5.60;;
20945;SDS011;10632;51.276;7.116;2022-07-23T01:09:13;15.45;;;5.47;;
20945;SDS011;10632;51.276;7.116;2022-07-23T01:11:40;16.00;;;5.15;;
20945;SDS011;10632;51.276;7.116;2022-07-23T01:14:12;17.17;;;5.65;;
20945;SDS011;10632;51.276;7.116;2022-07-23T01:16:40;15.88;;;5.03;;
20945;SDS011;10632;51.276;7.116;2022-07-23T01:19:09;13.82;;;5.88;;
20945;SDS011;10632;51.276;7.116;2022-07-23T01:21:39;14.05;;;5.68;;
20945;SDS011;10632;51.276;7.116;2022-07-23T01:24:09;14.77;;;5.55;;
20945;SDS011;10632;51.276;7.116;2022-07-23T01:26:41;12.65;;;5.05;;
20945;SDS011;10632;51.276;7.116;2022-07-23T01:29:09;14.07;;;5.55;;
20945;SDS011;10632;51.276;7.116;2022-07-23T01:31:37;16.58;;;4.97;;
20945;SDS011;10632;51.276;7.116;2022-07-23T01:34:06;12.82;;;4.03;;
20945;SDS011;10632;51.276;7.116;2022-07-23T01:36:33;13.32;;;4.63;;
20945;SDS011;10632;51.276;7.116;2022-07-23T01:39:04;16.10;;;5.55;;
20945;SDS011;10632;51.276;7.116;2022-07-23T01:41:34;11.18;;;4.60;;
20945;SDS011;10632;51.276;7.116;2022-07-23T01:44:01;11.82;;;4.65;;
20945;SDS011;10632;51.276;7.116;2022-07-23T01:46:31;13.23;;;5.18;;
20945;SDS011;10632;51.276;7.116;2022-07-23T01:48:58;11.90;;;4.68;;
20945;SDS011;10632;51.276;7.116;2022-07-23T01:51:25;13.07;;;5.25;;
20945;SDS011;10632;51.276;7.116;2022-07-23T01:53:52;14.90;;;5.30;;
20945;SDS011;10632;51.276;7.116;2022-07-23T01:56:19;13.90;;;4.93;;
20945;SDS011;10632;51.276;7.116;2022-07-23T01:58:48;15.93;;;5.70;;
20945;SDS011;10632;51.276;7.116;2022-07-23T02:01:15;17.13;;;5.07;;
20945;SDS011;10632;51.276;7.116;2022-07-23T02:03:43;15.43;;;5.45;;
20945;SDS011;10632;51.276;7.116;2022-07-23T02:06:14;13.82;;;5.25;;
20945;SDS011;10632;51.276;7.116;2022-07-23T02:08:41;11.48;;;4.82;;
20945;SDS011;10632;51.276;7.116;2022-07-23T02:11:07;14.38;;;4.93;;
20945;SDS011;10632;51.276;7.116;2022-07-23T02:13:34;12.23;;;4.60;;
20945;SDS011;10632;51.276;7.116;2022-07-23T02:16:03;14.02;;;4.75;;
20945;SDS011;10632;51.276;7.116;2022-07-23T02:18:30;12.13;;;4.28;;
20945;SDS011;10632;51.276;7.116;2022-07-23T02:20:57;15.48;;;4.65;;
20945;SDS011;10632;51.276;7.116;2022-07-23T02:23:24;15.55;;;5.28;;
20945;SDS011;10632;51.276;7.116;2022-07-23T02:25:51;12.68;;;5.00;;
20945;SDS011;10632;51.276;7.116;2022-07-23T02:28:18;14.15;;;5.35;;
20945;SDS011;10632;51.276;7.116;2022-07-23T02:30:45;16.15;;;5.40;;
20945;SDS011;10632;51.276;7.116;2022-07-23T02:33:16;16.33;;;5.40;;
20945;SDS011;10632;51.276;7.116;2022-07-23T02:35:43;13.40;;;5.43;;
20945;SDS011;10632;51.276;7.116;2022-07-23T02:38:10;15.77;;;5.30;;
20945;SDS011;10632;51.276;7.116;2022-07-23T02:40:37;15.05;;;5.10;;
20945;SDS011;10632;51.276;7.116;2022-07-23T02:43:04;15.90;;;5.50;;
20945;SDS011;10632;51.276;7.116;2022-07-23T02:45:31;13.73;;;5.60;;
20945;SDS011;10632;51.276;7.116;2022-07-23T02:47:58;16.15;;;5.85;;
20945;SDS011;10632;51.276;7.116;2022-07-23T02:50:26;16.55;;;6.22;;
20945;SDS011;10632;51.276;7.116;2022-07-23T02:52:53;17.15;;;6.32;;
20945;SDS011;10632;51.276;7.116;2022-07-23T02:55:20;19.40;;;6.88;;
20945;SDS011;10632;51.276;7.116;2022-07-23T02:57:47;23.00;;;6.50;;
20945;SDS011;10632;51.276;7.116;2022-07-23T03:00:14;17.80;;;6.05;;
20945;SDS011;10632;51.276;7.116;2022-07-23T03:02:41;16.92;;;6.45;;
20945;SDS011;10632;51.276;7.116;2022-07-23T03:05:08;16.13;;;5.82;;
20945;SDS011;10632;51.276;7.116;2022-07-23T03:07:37;18.80;;;6.68;;
20945;SDS011;10632;51.276;7.116;2022-07-23T03:10:04;19.73;;;7.07;;
20945;SDS011;10632;51.276;7.116;2022-07-23T03:12:31;24.75;;;7.70;;
20945;SDS011;10632;51.276;7.116;2022-07-23T03:14:58;17.15;;;6.68;;
20945;SDS011;10632;51.276;7.116;2022-07-23T03:17:25;18.33;;;6.68;;
20945;SDS011;10632;51.276;7.116;2022-07-23T03:19:53;20.02;;;6.63;;
20945;SDS011;10632;51.276;7.116;2022-07-23T03:22:20;18.13;;;6.60;;
20945;SDS011;10632;51.276;7.116;2022-07-23T03:24:48;19.02;;;6.13;;
20945;SDS011;10632;51.276;7.116;2022-07-23T03:27:21;18.95;;;6.13;;
20945;SDS011;10632;51.276;7.116;2022-07-23T03:29:49;17.35;;;6.15;;
20945;SDS011;10632;51.276;7.116;2022-07-23T03:32:16;18.13;;;6.13;;
20945;SDS011;10632;51.276;7.116;2022-07-23T03:34:46;16.90;;;5.60;;
20945;SDS011;10632;51.276;7.116;2022-07-23T03:37:13;15.57;;;5.22;;
20945;SDS011;10632;51.276;7.116;2022-07-23T03:39:40;20.98;;;6.60;;
20945;SDS011;10632;51.276;7.116;2022-07-23T03:42:09;17.98;;;5.90;;
20945;SDS011;10632;51.276;7.116;2022-07-23T03:44:39;16.77;;;5.63;;
20945;SDS011;10632;51.276;7.116;2022-07-23T03:47:06;15.93;;;5.50;;
20945;SDS011;10632;51.276;7.116;2022-07-23T03:49:34;15.32;;;5.85;;
20945;SDS011;10632;51.276;7.116;2022-07-23T03:52:01;18.75;;;5.80;;
20945;SDS011;10632;51.276;7.116;2022-07-23T03:54:28;17.65;;;5.90;;
20945;SDS011;10632;51.276;7.116;2022-07-23T03:56:55;17.58;;;6.20;;
20945;SDS011;10632;51.276;7.116;2022-07-23T03:59:24;18.75;;;6.32;;
20945;SDS011;10632;51.276;7.116;2022-07-23T04:01:50;15.45;;;5.53;;
20945;SDS011;10632;51.276;7.116;2022-07-23T04:04:17;16.83;;;6.15;;
20945;SDS011;10632;51.276;7.116;2022-07-23T04:06:44;15.38;;;5.50;;
20945;SDS011;10632;51.276;7.116;2022-07-23T04:09:11;18.80;;;5.65;;
20945;SDS011;10632;51.276;7.116;2022-07-23T04:11:38;17.30;;;5.47;;
20945;SDS011;10632;51.276;7.116;2022-07-23T04:14:05;13.75;;;5.00;;
20945;SDS011;10632;51.276;7.116;2022-07-23T04:16:40;16.77;;;5.43;;
20945;SDS011;10632;51.276;7.116;2022-07-23T04:19:07;15.00;;;5.13;;
20945;SDS011;10632;51.276;7.116;2022-07-23T04:21:34;16.48;;;5.32;;
20945;SDS011;10632;51.276;7.116;2022-07-23T04:24:01;11.05;;;4.35;;
20945;SDS011;10632;51.276;7.116;2022-07-23T04:26:28;12.93;;;4.60;;
20945;SDS011;10632;51.276;7.116;2022-07-23T04:28:55;14.40;;;4.50;;
20945;SDS011;10632;51.276;7.116;2022-07-23T04:31:22;12.27;;;4.45;;
20945;SDS011;10632;51.276;7.116;2022-07-23T04:33:50;12.38;;;4.68;;
20945;SDS011;10632;51.276;7.116;2022-07-23T04:36:17;13.45;;;4.38;;
20945;SDS011;10632;51.276;7.116;2022-07-23T04:38:44;10.73;;;3.83;;
20945;SDS011;10632;51.276;7.116;2022-07-23T04:41:11;11.35;;;4.03;;
20945;SDS011;10632;51.276;7.116;2022-07-23T04:43:37;17.65;;;5.90;;
20945;SDS011;10632;51.276;7.116;2022-07-23T04:46:04;24.13;;;6.78;;
20945;SDS011;10632;51.276;7.116;2022-07-23T04:48:32;16.85;;;5.70;;
20945;SDS011;10632;51.276;7.116;2022-07-23T04:51:02;19.20;;;5.93;;
20945;SDS011;10632;51.276;7.116;2022-07-23T04:53:29;25.95;;;7.93;;
20945;SDS011;10632;51.276;7.116;2022-07-23T04:55:56;20.13;;;6.88;;
20945;SDS011;10632;51.276;7.116;2022-07-23T04:58:23;23.83;;;8.02;;
20945;SDS011;10632;51.276;7.116;2022-07-23T05:00:50;25.75;;;8.20;;
20945;SDS011;10632;51.276;7.116;2022-07-23T05:03:17;19.73;;;6.95;;
20945;SDS011;10632;51.276;7.116;2022-07-23T05:05:44;18.60;;;6.32;;
20945;SDS011;10632;51.276;7.116;2022-07-23T05:08:14;17.50;;;6.35;;
20945;SDS011;10632;51.276;7.116;2022-07-23T05:10:44;16.73;;;6.65;;
20945;SDS011;10632;51.276;7.116;2022-07-23T05:13:11;13.30;;;5.25;;
20945;SDS011;10632;51.276;7.116;2022-07-23T05:15:38;11.98;;;4.78;;
20945;SDS011;10632;51.276;7.116;2022-07-23T05:18:05;14.05;;;5.53;;
20945;SDS011;10632;51.276;7.116;2022-07-23T05:20:31;14.30;;;5.22;;
20945;SDS011;10632;51.276;7.116;2022-07-23T05:22:58;13.05;;;5.05;;
20945;SDS011;10632;51.276;7.116;2022-07-23T05:25:30;11.57;;;4.68;;
20945;SDS011;10632;51.276;7.116;2022-07-23T05:27:59;11.00;;;4.70;;
20945;SDS011;10632;51.276;7.116;2022-07-23T05:30:26;9.77;;;4.25;;
20945;SDS011;10632;51.276;7.116;2022-07-23T05:32:53;11.85;;;4.88;;
20945;SDS011;10632;51.276;7.116;2022-07-23T05:35:20;10.18;;;4.70;;
20945;SDS011;10632;51.276;7.116;2022-07-23T05:37:47;9.52;;;4.00;;
20945;SDS011;10632;51.276;7.116;2022-07-23T05:40:14;9.18;;;3.58;;
20945;SDS011;10632;51.276;7.116;2022-07-23T05:42:43;8.27;;;3.42;;
20945;SDS011;10632;51.276;7.116;2022-07-23T05:45:10;8.93;;;3.80;;
20945;SDS011;10632;51.276;7.116;2022-07-23T05:47:40;9.57;;;3.85;;
20945;SDS011;10632;51.276;7.116;2022-07-23T05:50:09;12.73;;;4.78;;
20945;SDS011;10632;51.276;7.116;2022-07-23T05:52:36;9.98;;;3.95;;
20945;SDS011;10632;51.276;7.116;2022-07-23T05:55:04;9.05;;;3.75;;
20945;SDS011;10632;51.276;7.116;2022-07-23T05:57:31;8.35;;;3.80;;
20945;SDS011;10632;51.276;7.116;2022-07-23T05:59:59;13.43;;;4.40;;
20945;SDS011;10632;51.276;7.116;2022-07-23T06:02:27;10.55;;;3.60;;
20945;SDS011;10632;51.276;7.116;2022-07-23T06:04:54;12.43;;;5.00;;
20945;SDS011;10632;51.276;7.116;2022-07-23T06:07:21;9.07;;;3.88;;
20945;SDS011;10632;51.276;7.116;2022-07-23T06:09:48;9.07;;;3.72;;
20945;SDS011;10632;51.276;7.116;2022-07-23T06:12:15;7.07;;;3.58;;
20945;SDS011;10632;51.276;7.116;2022-07-23T06:14:42;7.70;;;3.25;;
20945;SDS011;10632;51.276;7.116;2022-07-23T06:17:11;12.63;;;4.63;;
20945;SDS011;10632;51.276;7.116;2022-07-23T06:19:38;10.02;;;3.83;;
20945;SDS011;10632;51.276;7.116;2022-07-23T06:22:04;10.80;;;4.18;;
20945;SDS011;10632;51.276;7.116;2022-07-23T06:24:31;10.68;;;4.22;;
20945;SDS011;10632;51.276;7.116;2022-07-23T06:26:58;11.52;;;4.80;;
20945;SDS011;10632;51.276;7.116;2022-07-23T06:29:25;12.00;;;4.88;;
20945;SDS011;10632;51.276;7.116;2022-07-23T06:31:52;13.65;;;5.05;;
20945;SDS011;10632;51.276;7.116;2022-07-23T06:34:20;14.45;;;5.18;;
20945;SDS011;10632;51.276;7.116;2022-07-23T06:36:47;15.23;;;5.97;;
20945;SDS011;10632;51.276;7.116;2022-07-23T06:39:14;13.10;;;5.10;;
20945;SDS011;10632;51.276;7.116;2022-07-23T06:41:44;13.73;;;5.70;;
20945;SDS011;10632;51.276;7.116;2022-07-23T06:44:11;14.82;;;5.50;;
20945;SDS011;10632;51.276;7.116;2022-07-23T06:46:38;14.07;;;5.05;;
20945;SDS011;10632;51.276;7.116;2022-07-23T06:49:05;11.23;;;5.13;;
20945;SDS011;10632;51.276;7.116;2022-07-23T06:51:33;15.15;;;5.70;;
20945;SDS011;10632;51.276;7.116;2022-07-23T06:54:00;12.60;;;5.50;;
20945;SDS011;10632;51.276;7.116;2022-07-23T06:56:27;18.77;;;7.00;;
20945;SDS011;10632;51.276;7.116;2022-07-23T06:58:54;20.80;;;7.45;;
20945;SDS011;10632;51.276;7.116;2022-07-23T07:01:21;20.63;;;7.22;;
20945;SDS011;10632;51.276;7.116;2022-07-23T07:03:48;17.23;;;7.20;;
20945;SDS011;10632;51.276;7.116;2022-07-23T07:06:15;24.10;;;8.32;;
20945;SDS011;10632;51.276;7.116;2022-07-23T07:08:45;24.45;;;8.05;;
20945;SDS011;10632;51.276;7.116;2022-07-23T07:11:12;19.98;;;7.82;;
20945;SDS011;10632;51.276;7.116;2022-07-23T07:13:41;24.65;;;8.25;;
20945;SDS011;10632;51.276;7.116;2022-07-23T07:16:08;23.55;;;8.45;;
20945;SDS011;10632;51.276;7.116;2022-07-23T07:18:35;23.95;;;8.43;;
20945;SDS011;10632;51.276;7.116;2022-07-23T07:21:02;32.30;;;10.45;;
20945;SDS011;10632;51.276;7.116;2022-07-23T07:23:29;25.05;;;9.25;;
20945;SDS011;10632;51.276;7.116;2022-07-23T07:25:58;29.92;;;10.35;;
20945;SDS011;10632;51.276;7.116;2022-07-23T07:28:24;31.77;;;10.70;;
20945;SDS011;10632;51.276;7.116;2022-07-23T07:30:52;33.25;;;11.50;;
20945;SDS011;10632;51.276;7.116;2022-07-23T07:33:19;32.50;;;11.00;;
20945;SDS011;10632;51.276;7.116;2022-07-23T07:35:47;35.78;;;11.18;;
20945;SDS011;10632;51.276;7.116;2022-07-23T07:38:14;34.03;;;11.68;;
20945;SDS011;10632;51.276;7.116;2022-07-23T07:40:40;31.17;;;11.35;;
20945;SDS011;10632;51.276;7.116;2022-07-23T07:43:09;33.20;;;11.15;;
20945;SDS011;10632;51.276;7.116;2022-07-23T07:45:36;45.92;;;12.55;;
20945;SDS011;10632;51.276;7.116;2022-07-23T07:48:03;36.83;;;12.27;;
20945;SDS011;10632;51.276;7.116;2022-07-23T07:50:31;33.60;;;11.75;;
20945;SDS011;10632;51.276;7.116;2022-07-23T07:52:57;37.97;;;12.18;;
20945;SDS011;10632;51.276;7.116;2022-07-23T07:55:24;37.88;;;12.50;;
20945;SDS011;10632;51.276;7.116;2022-07-23T07:57:52;35.22;;;12.25;;
20945;SDS011;10632;51.276;7.116;2022-07-23T08:00:20;36.90;;;12.93;;
20945;SDS011;10632;51.276;7.116;2022-07-23T08:02:48;34.28;;;11.60;;
20945;SDS011;10632;51.276;7.116;2022-07-23T08:05:18;40.67;;;12.32;;
20945;SDS011;10632;51.276;7.116;2022-07-23T08:07:47;33.58;;;12.02;;
20945;SDS011;10632;51.276;7.116;2022-07-23T08:10:14;34.65;;;12.02;;
20945;SDS011;10632;51.276;7.116;2022-07-23T08:12:41;27.85;;;10.80;;
20945;SDS011;10632;51.276;7.116;2022-07-23T08:15:10;32.40;;;10.93;;
20945;SDS011;10632;51.276;7.116;2022-07-23T08:17:40;31.15;;;12.10;;
20945;SDS011;10632;51.276;7.116;2022-07-23T08:20:08;27.58;;;11.40;;
20945;SDS011;10632;51.276;7.116;2022-07-23T08:22:42;26.40;;;11.07;;
20945;SDS011;10632;51.276;7.116;2022-07-23T08:25:14;32.80;;;11.63;;
20945;SDS011;10632;51.276;7.116;2022-07-23T08:27:42;30.60;;;11.27;;
20945;SDS011;10632;51.276;7.116;2022-07-23T08:30:09;29.33;;;11.32;;
20945;SDS011;10632;51.276;7.116;2022-07-23T08:32:54;32.85;;;12.65;;
20945;SDS011;10632;51.276;7.116;2022-07-23T08:35:29;29.45;;;11.32;;
20945;SDS011;10632;51.276;7.116;2022-07-23T08:37:57;27.60;;;11.75;;
20945;SDS011;10632;51.276;7.116;2022-07-23T08:40:25;26.23;;;11.30;;
20945;SDS011;10632;51.276;7.116;2022-07-23T08:42:53;27.80;;;11.57;;
20945;SDS011;10632;51.276;7.116;2022-07-23T08:45:21;26.58;;;11.23;;
20945;SDS011;10632;51.276;7.116;2022-07-23T08:47:49;27.48;;;12.50;;
20945;SDS011;10632;51.276;7.116;2022-07-23T08:50:19;28.67;;;12.73;;
20945;SDS011;10632;51.276;7.116;2022-07-23T08:52:46;26.77;;;12.30;;
20945;SDS011;10632;51.276;7.116;2022-07-23T08:55:15;26.85;;;12.10;;
20945;SDS011;10632;51.276;7.116;2022-07-23T08:57:43;28.42;;;12.52;;
20945;SDS011;10632;51.276;7.116;2022-07-23T09:00:10;29.00;;;13.20;;
20945;SDS011;10632;51.276;7.116;2022-07-23T09:02:38;27.90;;;13.38;;
20945;SDS011;10632;51.276;7.116;2022-07-23T09:05:07;30.83;;;13.82;;
20945;SDS011;10632;51.276;7.116;2022-07-23T09:07:37;27.30;;;12.63;;
20945;SDS011;10632;51.276;7.116;2022-07-23T09:10:24;25.73;;;12.65;;
20945;SDS011;10632;51.276;7.116;2022-07-23T09:12:51;30.10;;;13.48;;
20945;SDS011;10632;51.276;7.116;2022-07-23T09:15:18;25.02;;;12.55;;
20945;SDS011;10632;51.276;7.116;2022-07-23T09:17:45;27.60;;;13.60;;
20945;SDS011;10632;51.276;7.116;2022-07-23T09:20:13;29.33;;;13.38;;
20945;SDS011;10632;51.276;7.116;2022-07-23T09:22:45;25.48;;;12.95;;
20945;SDS011;10632;51.276;7.116;2022-07-23T09:25:14;30.20;;;13.95;;
20945;SDS011;10632;51.276;7.116;2022-07-23T09:30:28;22.42;;;11.30;;
20945;SDS011;10632;51.276;7.116;2022-07-23T09:33:07;21.98;;;11.20;;
20945;SDS011;10632;51.276;7.116;2022-07-23T09:35:45;19.98;;;10.45;;
20945;SDS011;10632;51.276;7.116;2022-07-23T09:38:14;21.88;;;11.43;;
20945;SDS011;10632;51.276;7.116;2022-07-23T09:40:43;26.42;;;12.20;;
20945;SDS011;10632;51.276;7.116;2022-07-23T09:43:11;20.42;;;10.93;;
20945;SDS011;10632;51.276;7.116;2022-07-23T09:45:38;22.02;;;11.63;;
20945;SDS011;10632;51.276;7.116;2022-07-23T09:48:12;22.48;;;11.00;;
20945;SDS011;10632;51.276;7.116;2022-07-23T09:50:40;20.60;;;11.10;;
20945;SDS011;10632;51.276;7.116;2022-07-23T09:53:07;20.90;;;10.32;;
20945;SDS011;10632;51.276;7.116;2022-07-23T09:55:36;21.10;;;10.73;;
20945;SDS011;10632;51.276;7.116;2022-07-23T09:58:04;25.02;;;11.55;;
20945;SDS011;10632;51.276;7.116;2022-07-23T10:00:34;28.42;;;11.68;;
20945;SDS011;10632;51.276;7.116;2022-07-23T10:03:05;25.92;;;11.93;;
20945;SDS011;10632;51.276;7.116;2022-07-23T10:05:32;25.95;;;11.27;;
20945;SDS011;10632;51.276;7.116;2022-07-23T10:08:00;22.80;;;11.13;;
20945;SDS011;10632;51.276;7.116;2022-07-23T10:10:28;24.02;;;11.98;;
20945;SDS011;10632;51.276;7.116;2022-07-23T10:12:59;23.50;;;12.35;;
20945;SDS011;10632;51.276;7.116;2022-07-23T10:15:46;22.05;;;11.50;;
20945;SDS011;10632;51.276;7.116;2022-07-23T10:18:13;20.13;;;11.35;;
20945;SDS011;10632;51.276;7.116;2022-07-23T10:20:40;21.98;;;10.98;;
20945;SDS011;10632;51.276;7.116;2022-07-23T10:23:10;20.30;;;10.20;;
20945;SDS011;10632;51.276;7.116;2022-07-23T10:25:46;18.38;;;9.07;;
20945;SDS011;10632;51.276;7.116;2022-07-23T10:31:14;18.30;;;8.77;;
20945;SDS011;10632;51.276;7.116;2022-07-23T10:33:54;19.20;;;9.15;;
20945;SDS011;10632;51.276;7.116;2022-07-23T10:36:29;18.35;;;8.77;;
20945;SDS011;10632;51.276;7.116;2022-07-23T10:39:03;21.05;;;9.13;;
20945;SDS011;10632;51.276;7.116;2022-07-23T10:41:32;18.33;;;9.05;;
20945;SDS011;10632;51.276;7.116;2022-07-23T10:44:06;19.60;;;9.13;;
20945;SDS011;10632;51.276;7.116;2022-07-23T10:46:34;14.82;;;7.82;;
20945;SDS011;10632;51.276;7.116;2022-07-23T10:49:21;17.95;;;7.65;;
20945;SDS011;10632;51.276;7.116;2022-07-23T10:54:46;13.13;;;7.03;;
20945;SDS011;10632;51.276;7.116;2022-07-23T10:57:16;16.02;;;6.95;;
20945;SDS011;10632;51.276;7.116;2022-07-23T11:02:49;11.18;;;6.28;;
20945;SDS011;10632;51.276;7.116;2022-07-23T11:05:17;10.02;;;5.43;;
20945;SDS011;10632;51.276;7.116;2022-07-23T11:10:46;8.88;;;4.93;;
20945;SDS011;10632;51.276;7.116;2022-07-23T11:16:24;9.02;;;5.20;;
20945;SDS011;10632;51.276;7.116;2022-07-23T11:21:51;9.25;;;5.03;;
20945;SDS011;10632;51.276;7.116;2022-07-23T11:24:19;8.45;;;4.90;;
20945;SDS011;10632;51.276;7.116;2022-07-23T11:26:49;7.70;;;4.57;;
20945;SDS011;10632;51.276;7.116;2022-07-23T11:32:30;7.18;;;4.03;;
20945;SDS011;10632;51.276;7.116;2022-07-23T11:35:00;7.38;;;4.10;;
20945;SDS011;10632;51.276;7.116;2022-07-23T11:37:37;7.40;;;3.60;;
20945;SDS011;10632;51.276;7.116;2022-07-23T11:40:06;6.90;;;3.25;;
20945;SDS011;10632;51.276;7.116;2022-07-23T11:42:36;7.15;;;3.22;;
20945;SDS011;10632;51.276;7.116;2022-07-23T11:45:05;6.50;;;3.20;;
20945;SDS011;10632;51.276;7.116;2022-07-23T11:47:35;5.80;;;3.00;;
20945;SDS011;10632;51.276;7.116;2022-07-23T11:50:03;6.45;;;3.00;;
20945;SDS011;10632;51.276;7.116;2022-07-23T11:52:33;6.00;;;3.10;;
20945;SDS011;10632;51.276;7.116;2022-07-23T11:55:01;7.15;;;2.70;;
20945;SDS011;10632;51.276;7.116;2022-07-23T11:57:30;6.78;;;3.33;;
20945;SDS011;10632;51.276;7.116;2022-07-23T12:00:02;6.15;;;3.28;;
20945;SDS011;10632;51.276;7.116;2022-07-23T12:02:32;6.13;;;3.03;;
20945;SDS011;10632;51.276;7.116;2022-07-23T12:05:01;7.40;;;2.92;;
20945;SDS011;10632;51.276;7.116;2022-07-23T12:07:29;5.57;;;2.58;;
20945;SDS011;10632;51.276;7.116;2022-07-23T12:09:57;3.92;;;2.30;;
20945;SDS011;10632;51.276;7.116;2022-07-23T12:12:25;5.28;;;2.38;;
20945;SDS011;10632;51.276;7.116;2022-07-23T12:14:53;3.85;;;2.20;;
20945;SDS011;10632;51.276;7.116;2022-07-23T12:17:27;5.75;;;1.98;;
20945;SDS011;10632;51.276;7.116;2022-07-23T12:19:57;5.00;;;2.20;;
20945;SDS011;10632;51.276;7.116;2022-07-23T12:22:25;5.78;;;2.10;;
20945;SDS011;10632;51.276;7.116;2022-07-23T12:25:00;4.70;;;2.10;;
20945;SDS011;10632;51.276;7.116;2022-07-23T12:27:29;3.97;;;1.77;;
20945;SDS011;10632;51.276;7.116;2022-07-23T12:29:58;3.90;;;2.00;;
20945;SDS011;10632;51.276;7.116;2022-07-23T12:32:26;5.03;;;2.10;;
20945;SDS011;10632;51.276;7.116;2022-07-23T12:35:06;4.28;;;2.25;;
20945;SDS011;10632;51.276;7.116;2022-07-23T12:37:35;5.10;;;2.42;;
20945;SDS011;10632;51.276;7.116;2022-07-23T12:43:00;4.65;;;2.08;;
20945;SDS011;10632;51.276;7.116;2022-07-23T12:45:41;3.55;;;2.05;;
20945;SDS011;10632;51.276;7.116;2022-07-23T12:48:15;5.60;;;2.35;;
20945;SDS011;10632;51.276;7.116;2022-07-23T12:50:49;4.97;;;2.30;;
20945;SDS011;10632;51.276;7.116;2022-07-23T12:53:27;4.13;;;2.20;;
20945;SDS011;10632;51.276;7.116;2022-07-23T12:56:00;4.47;;;2.10;;
20945;SDS011;10632;51.276;7.116;2022-07-23T12:58:39;5.25;;;2.20;;
20945;SDS011;10632;51.276;7.116;2022-07-23T13:01:07;5.53;;;2.25;;
20945;SDS011;10632;51.276;7.116;2022-07-23T13:03:35;4.05;;;2.30;;
20945;SDS011;10632;51.276;7.116;2022-07-23T13:06:06;4.95;;;2.47;;
20945;SDS011;10632;51.276;7.116;2022-07-23T13:08:35;5.03;;;2.20;;
20945;SDS011;10632;51.276;7.116;2022-07-23T13:11:03;4.82;;;2.22;;
20945;SDS011;10632;51.276;7.116;2022-07-23T13:13:32;3.88;;;2.08;;
20945;SDS011;10632;51.276;7.116;2022-07-23T13:16:01;6.85;;;2.10;;
20945;SDS011;10632;51.276;7.116;2022-07-23T13:18:29;4.68;;;1.90;;
20945;SDS011;10632;51.276;7.116;2022-07-23T13:20:57;4.13;;;2.10;;
20945;SDS011;10632;51.276;7.116;2022-07-23T13:23:26;4.15;;;2.03;;
20945;SDS011;10632;51.276;7.116;2022-07-23T13:25:54;5.25;;;2.50;;
20945;SDS011;10632;51.276;7.116;2022-07-23T13:28:21;3.95;;;2.47;;
20945;SDS011;10632;51.276;7.116;2022-07-23T13:30:49;5.05;;;2.50;;
20945;SDS011;10632;51.276;7.116;2022-07-23T13:33:17;5.05;;;2.53;;
20945;SDS011;10632;51.276;7.116;2022-07-23T13:35:47;8.68;;;3.20;;
20945;SDS011;10632;51.276;7.116;2022-07-23T13:38:14;6.25;;;3.38;;
20945;SDS011;10632;51.276;7.116;2022-07-23T13:40:50;8.93;;;4.65;;
20945;SDS011;10632;51.276;7.116;2022-07-23T13:43:19;7.53;;;3.90;;
20945;SDS011;10632;51.276;7.116;2022-07-23T13:45:47;7.97;;;4.38;;
20945;SDS011;10632;51.276;7.116;2022-07-23T13:48:15;9.55;;;3.70;;
20945;SDS011;10632;51.276;7.116;2022-07-23T13:50:44;12.35;;;3.95;;
20945;SDS011;10632;51.276;7.116;2022-07-23T13:53:12;7.65;;;3.75;;
20945;SDS011;10632;51.276;7.116;2022-07-23T13:55:41;6.47;;;3.63;;
20945;SDS011;10632;51.276;7.116;2022-07-23T13:58:10;7.78;;;3.95;;
20945;SDS011;10632;51.276;7.116;2022-07-23T14:00:40;11.07;;;4.28;;
20945;SDS011;10632;51.276;7.116;2022-07-23T14:03:10;6.97;;;4.00;;
20945;SDS011;10632;51.276;7.116;2022-07-23T14:05:39;8.77;;;4.68;;
20945;SDS011;10632;51.276;7.116;2022-07-23T14:08:07;8.35;;;4.40;;
20945;SDS011;10632;51.276;7.116;2022-07-23T14:10:40;7.03;;;4.03;;
20945;SDS011;10632;51.276;7.116;2022-07-23T14:13:08;6.68;;;3.90;;
20945;SDS011;10632;51.276;7.116;2022-07-23T14:15:36;8.35;;;4.15;;
20945;SDS011;10632;51.276;7.116;2022-07-23T14:18:05;8.13;;;3.90;;
20945;SDS011;10632;51.276;7.116;2022-07-23T14:20:36;7.65;;;3.70;;
20945;SDS011;10632;51.276;7.116;2022-07-23T14:23:03;7.63;;;3.65;;
20945;SDS011;10632;51.276;7.116;2022-07-23T14:25:30;9.48;;;3.78;;
20945;SDS011;10632;51.276;7.116;2022-07-23T14:27:57;7.22;;;3.40;;
20945;SDS011;10632;51.276;7.116;2022-07-23T14:30:26;6.88;;;3.38;;
20945;SDS011;10632;51.276;7.116;2022-07-23T14:32:53;6.03;;;3.58;;
20945;SDS011;10632;51.276;7.116;2022-07-23T14:35:20;6.63;;;3.20;;
20945;SDS011;10632;51.276;7.116;2022-07-23T14:37:48;6.18;;;3.22;;
20945;SDS011;10632;51.276;7.116;2022-07-23T14:40:15;9.80;;;3.40;;
20945;SDS011;10632;51.276;7.116;2022-07-23T14:42:43;6.65;;;3.28;;
20945;SDS011;10632;51.276;7.116;2022-07-23T14:45:11;4.95;;;2.90;;
20945;SDS011;10632;51.276;7.116;2022-07-23T14:47:40;6.88;;;3.30;;
20945;SDS011;10632;51.276;7.116;2022-07-23T14:50:10;6.15;;;3.25;;
20945;SDS011;10632;51.276;7.116;2022-07-23T14:52:38;6.95;;;3.10;;
20945;SDS011;10632;51.276;7.116;2022-07-23T14:55:08;6.80;;;3.10;;
20945;SDS011;10632;51.276;7.116;2022-07-23T14:57:35;6.07;;;3.15;;
20945;SDS011;10632;51.276;7.116;2022-07-23T15:00:03;8.13;;;3.53;;
20945;SDS011;10632;51.276;7.116;2022-07-23T15:02:33;7.53;;;3.53;;
20945;SDS011;10632;51.276;7.116;2022-07-23T15:05:02;7.43;;;3.95;;
20945;SDS011;10632;51.276;7.116;2022-07-23T15:07:30;6.70;;;3.78;;
20945;SDS011;10632;51.276;7.116;2022-07-23T15:09:58;6.93;;;3.50;;